sensor_id;sensor_type;location;lat;lon;timestamp;temperature;humidity
7512;DHT22;9999;48.780;9.146;2023-10-13T00:01:47;18.60;99.90
7512;DHT22;9999;48.780;9.146;2023-10-13T00:04:17;18.60;99.90
7512;DHT22;9999;48.780;9.146;2023-10-13T00:06:48;18.60;99.90
7512;DHT22;9999;48.780;9.146;2023-10-13T00:09:15;18.50;99.90
7512;DHT22;9999;48.780;9.146;2023-10-13T00:11:42;18.50;99.90
7512;DHT22;9999;48.780;9.146;2023-10-13T00:14:13;18.50;99.90
7512;DHT22;9999;48.780;9.146;2023-10-13T00:16:43;18.40;99.90
7512;DHT22;9999;48.780;9.146;2023-10-13T00:19:27;18.40;99.90
7512;DHT22;9999;48.780;9.146;2023-10-13T00:21:54;18.40;99.90
7512;DHT22;9999;48.780;9.146;2023-10-13T00:24:34;18.30;99.90
7512;DHT22;9999;48.780;9.146;2023-10-13T00:27:08;18.20;99.90
7512;DHT22;9999;48.780;9.146;2023-10-13T00:29:47;18.20;99.90
7512;DHT22;9999;48.780;9.146;2023-10-13T00:32:16;18.20;99.90
7512;DHT22;9999;48.780;9.146;2023-10-13T00:34:48;18.20;99.90
7512;DHT22;9999;48.780;9.146;2023-10-13T00:37:20;18.20;99.90
7512;DHT22;9999;48.780;9.146;2023-10-13T00:39:54;18.20;99.90
7512;DHT22;9999;48.780;9.146;2023-10-13T00:42:22;18.10;99.90
7512;DHT22;9999;48.780;9.146;2023-10-13T00:45:01;18.00;99.90
7512;DHT22;9999;48.780;9.146;2023-10-13T00:47:26;17.90;99.90
7512;DHT22;9999;48.780;9.146;2023-10-13T00:50:14;17.90;99.90
7512;DHT22;9999;48.780;9.146;2023-10-13T00:52:41;17.90;99.90
7512;DHT22;9999;48.780;9.146;2023-10-13T00:55:13;17.90;99.90
7512;DHT22;9999;48.780;9.146;2023-10-13T00:57:41;17.90;99.90
7512;DHT22;9999;48.780;9.146;2023-10-13T01:00:10;17.90;99.90
7512;DHT22;9999;48.780;9.146;2023-10-13T01:02:44;17.90;99.90
7512;DHT22;9999;48.780;9.146;2023-10-13T01:05:20;17.90;99.90
7512;DHT22;9999;48.780;9.146;2023-10-13T01:07:47;17.90;99.90
7512;DHT22;9999;48.780;9.146;2023-10-13T01:10:18;17.90;99.90
7512;DHT22;9999;48.780;9.146;2023-10-13T01:12:45;17.90;99.90
7512;DHT22;9999;48.780;9.146;2023-10-13T01:15:13;18.00;99.90
7512;DHT22;9999;48.780;9.146;2023-10-13T01:17:45;18.00;99.90
7512;DHT22;9999;48.780;9.146;2023-10-13T01:20:12;17.90;99.90
7512;DHT22;9999;48.780;9.146;2023-10-13T01:22:45;17.90;99.90
7512;DHT22;9999;48.780;9.146;2023-10-13T01:25:21;17.90;99.90
7512;DHT22;9999;48.780;9.146;2023-10-13T01:27:51;17.90;99.90
7512;DHT22;9999;48.780;9.146;2023-10-13T01:30:18;17.90;99.90
7512;DHT22;9999;48.780;9.146;2023-10-13T01:32:48;17.80;99.90
7512;DHT22;9999;48.780;9.146;2023-10-13T01:35:17;17.80;99.90
7512;DHT22;9999;48.780;9.146;2023-10-13T01:37:44;17.80;99.90
7512;DHT22;9999;48.780;9.146;2023-10-13T01:40:11;17.80;99.90
7512;DHT22;9999;48.780;9.146;2023-10-13T01:42:39;17.80;99.90
7512;DHT22;9999;48.780;9.146;2023-10-13T01:45:06;17.70;99.90
7512;DHT22;9999;48.780;9.146;2023-10-13T01:47:32;17.70;99.90
7512;DHT22;9999;48.780;9.146;2023-10-13T01:49:59;17.70;99.90
7512;DHT22;9999;48.780;9.146;2023-10-13T01:52:32;17.60;99.90
7512;DHT22;9999;48.780;9.146;2023-10-13T01:54:59;17.60;99.90
7512;DHT22;9999;48.780;9.146;2023-10-13T01:57:26;17.60;99.90
7512;DHT22;9999;48.780;9.146;2023-10-13T01:59:55;17.60;99.90
7512;DHT22;9999;48.780;9.146;2023-10-13T02:02:21;17.60;99.90
7512;DHT22;9999;48.780;9.146;2023-10-13T02:04:54;17.60;99.90
7512;DHT22;9999;48.780;9.146;2023-10-13T02:07:22;17.50;99.90
7512;DHT22;9999;48.780;9.146;2023-10-13T02:09:55;17.50;99.90
7512;DHT22;9999;48.780;9.146;2023-10-13T02:12:21;17.60;99.90
7512;DHT22;9999;48.780;9.146;2023-10-13T02:14:51;17.50;99.90
7512;DHT22;9999;48.780;9.146;2023-10-13T02:17:18;17.50;99.90
7512;DHT22;9999;48.780;9.146;2023-10-13T02:19:47;17.50;99.90
7512;DHT22;9999;48.780;9.146;2023-10-13T02:22:13;17.50;99.90
7512;DHT22;9999;48.780;9.146;2023-10-13T02:24:54;17.50;99.90
7512;DHT22;9999;48.780;9.146;2023-10-13T02:27:26;17.50;99.90
7512;DHT22;9999;48.780;9.146;2023-10-13T02:29:54;17.60;99.90
7512;DHT22;9999;48.780;9.146;2023-10-13T02:32:25;17.60;99.90
7512;DHT22;9999;48.780;9.146;2023-10-13T02:34:52;17.50;99.90
7512;DHT22;9999;48.780;9.146;2023-10-13T02:37:18;17.50;99.90
7512;DHT22;9999;48.780;9.146;2023-10-13T02:39:45;17.60;99.90
7512;DHT22;9999;48.780;9.146;2023-10-13T02:42:11;17.50;99.90
7512;DHT22;9999;48.780;9.146;2023-10-13T02:44:48;17.50;99.90
7512;DHT22;9999;48.780;9.146;2023-10-13T02:47:14;17.50;99.90
7512;DHT22;9999;48.780;9.146;2023-10-13T02:49:42;17.50;99.90
7512;DHT22;9999;48.780;9.146;2023-10-13T02:52:09;17.50;99.90
7512;DHT22;9999;48.780;9.146;2023-10-13T02:54:36;17.50;99.90
7512;DHT22;9999;48.780;9.146;2023-10-13T02:57:06;17.40;99.90
7512;DHT22;9999;48.780;9.146;2023-10-13T02:59:33;17.30;99.90
7512;DHT22;9999;48.780;9.146;2023-10-13T03:02:06;17.30;99.90
7512;DHT22;9999;48.780;9.146;2023-10-13T03:04:45;17.30;99.90
7512;DHT22;9999;48.780;9.146;2023-10-13T03:07:11;17.40;99.90
7512;DHT22;9999;48.780;9.146;2023-10-13T03:09:41;17.40;99.90
7512;DHT22;9999;48.780;9.146;2023-10-13T03:12:15;17.40;99.90
7512;DHT22;9999;48.780;9.146;2023-10-13T03:14:42;17.40;99.90
7512;DHT22;9999;48.780;9.146;2023-10-13T03:17:08;17.30;99.90
7512;DHT22;9999;48.780;9.146;2023-10-13T03:19:43;17.30;99.90
7512;DHT22;9999;48.780;9.146;2023-10-13T03:22:15;17.30;99.90
7512;DHT22;9999;48.780;9.146;2023-10-13T03:24:42;17.20;99.90
7512;DHT22;9999;48.780;9.146;2023-10-13T03:27:12;17.20;99.90
7512;DHT22;9999;48.780;9.146;2023-10-13T03:29:42;17.20;99.90
7512;DHT22;9999;48.780;9.146;2023-10-13T03:32:10;17.20;99.90
7512;DHT22;9999;48.780;9.146;2023-10-13T03:34:41;17.10;99.90
7512;DHT22;9999;48.780;9.146;2023-10-13T03:37:17;17.10;99.90
7512;DHT22;9999;48.780;9.146;2023-10-13T03:40:01;17.10;99.90
7512;DHT22;9999;48.780;9.146;2023-10-13T03:42:31;17.00;99.90
7512;DHT22;9999;48.780;9.146;2023-10-13T03:44:58;17.00;99.90
7512;DHT22;9999;48.780;9.146;2023-10-13T03:47:25;17.00;99.90
7512;DHT22;9999;48.780;9.146;2023-10-13T03:49:53;17.00;99.90
7512;DHT22;9999;48.780;9.146;2023-10-13T03:52:41;16.90;99.90
7512;DHT22;9999;48.780;9.146;2023-10-13T03:55:08;16.90;99.90
7512;DHT22;9999;48.780;9.146;2023-10-13T03:57:43;16.90;99.90
7512;DHT22;9999;48.780;9.146;2023-10-13T04:00:13;16.90;99.90
7512;DHT22;9999;48.780;9.146;2023-10-13T04:02:48;16.80;99.90
7512;DHT22;9999;48.780;9.146;2023-10-13T04:05:29;16.80;99.90
7512;DHT22;9999;48.780;9.146;2023-10-13T04:08:06;16.80;99.90
7512;DHT22;9999;48.780;9.146;2023-10-13T04:10:52;16.80;99.90
7512;DHT22;9999;48.780;9.146;2023-10-13T04:13:32;16.80;99.90
7512;DHT22;9999;48.780;9.146;2023-10-13T04:16:17;16.80;99.90
7512;DHT22;9999;48.780;9.146;2023-10-13T04:18:57;16.90;99.90
7512;DHT22;9999;48.780;9.146;2023-10-13T04:21:33;16.90;99.90
7512;DHT22;9999;48.780;9.146;2023-10-13T04:24:10;17.00;99.90
7512;DHT22;9999;48.780;9.146;2023-10-13T04:26:54;17.00;99.90
7512;DHT22;9999;48.780;9.146;2023-10-13T04:29:41;17.00;99.90
7512;DHT22;9999;48.780;9.146;2023-10-13T04:32:36;17.00;99.90
7512;DHT22;9999;48.780;9.146;2023-10-13T04:35:05;17.00;99.90
7512;DHT22;9999;48.780;9.146;2023-10-13T04:37:36;17.00;99.90
7512;DHT22;9999;48.780;9.146;2023-10-13T04:40:18;17.00;99.90
7512;DHT22;9999;48.780;9.146;2023-10-13T04:42:50;17.00;99.90
7512;DHT22;9999;48.780;9.146;2023-10-13T04:45:19;17.00;99.90
7512;DHT22;9999;48.780;9.146;2023-10-13T04:48:19;17.00;99.90
7512;DHT22;9999;48.780;9.146;2023-10-13T04:50:59;17.00;99.90
7512;DHT22;9999;48.780;9.146;2023-10-13T04:53:40;16.90;99.90
7512;DHT22;9999;48.780;9.146;2023-10-13T04:56:33;16.90;99.90
7512;DHT22;9999;48.780;9.146;2023-10-13T04:59:34;16.90;99.90
7512;DHT22;9999;48.780;9.146;2023-10-13T05:02:09;16.80;99.90
7512;DHT22;9999;48.780;9.146;2023-10-13T05:04:53;16.70;99.90
7512;DHT22;9999;48.780;9.146;2023-10-13T05:08:08;16.70;99.90
7512;DHT22;9999;48.780;9.146;2023-10-13T05:10:52;16.80;99.90
7512;DHT22;9999;48.780;9.146;2023-10-13T05:13:38;16.80;99.90
7512;DHT22;9999;48.780;9.146;2023-10-13T05:16:22;16.90;99.90
7512;DHT22;9999;48.780;9.146;2023-10-13T05:19:06;16.90;99.90
7512;DHT22;9999;48.780;9.146;2023-10-13T05:21:51;16.90;99.90
7512;DHT22;9999;48.780;9.146;2023-10-13T05:24:35;16.80;99.90
7512;DHT22;9999;48.780;9.146;2023-10-13T05:27:28;16.80;99.90
7512;DHT22;9999;48.780;9.146;2023-10-13T05:30:14;16.80;99.90
7512;DHT22;9999;48.780;9.146;2023-10-13T05:33:13;16.80;99.90
7512;DHT22;9999;48.780;9.146;2023-10-13T05:35:57;16.80;99.90
7512;DHT22;9999;48.780;9.146;2023-10-13T05:38:42;16.70;99.90
7512;DHT22;9999;48.780;9.146;2023-10-13T05:41:26;16.70;99.90
7512;DHT22;9999;48.780;9.146;2023-10-13T05:44:11;16.70;99.90
7512;DHT22;9999;48.780;9.146;2023-10-13T05:46:56;16.60;99.90
7512;DHT22;9999;48.780;9.146;2023-10-13T05:49:48;16.60;99.90
7512;DHT22;9999;48.780;9.146;2023-10-13T05:52:30;16.60;99.90
7512;DHT22;9999;48.780;9.146;2023-10-13T05:55:14;16.50;99.90
7512;DHT22;9999;48.780;9.146;2023-10-13T05:57:58;16.50;99.90
7512;DHT22;9999;48.780;9.146;2023-10-13T06:00:43;16.50;99.90
7512;DHT22;9999;48.780;9.146;2023-10-13T06:03:28;16.50;99.90
7512;DHT22;9999;48.780;9.146;2023-10-13T06:06:13;16.60;99.90
7512;DHT22;9999;48.780;9.146;2023-10-13T06:08:57;16.50;99.90
7512;DHT22;9999;48.780;9.146;2023-10-13T06:11:42;16.60;99.90
7512;DHT22;9999;48.780;9.146;2023-10-13T06:14:26;16.60;99.90
7512;DHT22;9999;48.780;9.146;2023-10-13T06:17:11;16.60;99.90
7512;DHT22;9999;48.780;9.146;2023-10-13T06:19:56;16.70;99.90
7512;DHT22;9999;48.780;9.146;2023-10-13T06:22:40;16.70;99.90
7512;DHT22;9999;48.780;9.146;2023-10-13T06:25:25;16.70;99.90
7512;DHT22;9999;48.780;9.146;2023-10-13T06:28:09;16.80;99.90
7512;DHT22;9999;48.780;9.146;2023-10-13T06:30:55;16.80;99.90
7512;DHT22;9999;48.780;9.146;2023-10-13T06:33:26;16.80;99.90
7512;DHT22;9999;48.780;9.146;2023-10-13T06:35:57;16.90;99.90
7512;DHT22;9999;48.780;9.146;2023-10-13T06:38:24;16.90;99.90
7512;DHT22;9999;48.780;9.146;2023-10-13T06:40:56;17.00;99.90
7512;DHT22;9999;48.780;9.146;2023-10-13T06:43:23;17.00;99.90
7512;DHT22;9999;48.780;9.146;2023-10-13T06:45:50;17.10;99.90
7512;DHT22;9999;48.780;9.146;2023-10-13T06:48:23;17.10;99.90
7512;DHT22;9999;48.780;9.146;2023-10-13T06:50:50;17.20;99.90
7512;DHT22;9999;48.780;9.146;2023-10-13T06:53:20;17.10;99.90
7512;DHT22;9999;48.780;9.146;2023-10-13T06:55:47;17.10;99.90
7512;DHT22;9999;48.780;9.146;2023-10-13T06:58:18;17.20;99.90
7512;DHT22;9999;48.780;9.146;2023-10-13T07:00:50;17.20;99.90
7512;DHT22;9999;48.780;9.146;2023-10-13T07:03:24;17.30;99.90
7512;DHT22;9999;48.780;9.146;2023-10-13T07:05:54;17.60;99.90
7512;DHT22;9999;48.780;9.146;2023-10-13T07:08:25;17.90;99.90
7512;DHT22;9999;48.780;9.146;2023-10-13T07:10:53;18.10;99.90
7512;DHT22;9999;48.780;9.146;2023-10-13T07:13:30;18.30;99.90
7512;DHT22;9999;48.780;9.146;2023-10-13T07:16:02;18.40;99.90
7512;DHT22;9999;48.780;9.146;2023-10-13T07:18:33;18.70;99.90
7512;DHT22;9999;48.780;9.146;2023-10-13T07:21:04;18.90;99.90
7512;DHT22;9999;48.780;9.146;2023-10-13T07:23:37;19.00;99.90
7512;DHT22;9999;48.780;9.146;2023-10-13T07:26:05;19.00;99.90
7512;DHT22;9999;48.780;9.146;2023-10-13T07:28:34;19.20;99.90
7512;DHT22;9999;48.780;9.146;2023-10-13T07:31:02;19.10;99.90
7512;DHT22;9999;48.780;9.146;2023-10-13T07:33:41;19.20;99.90
7512;DHT22;9999;48.780;9.146;2023-10-13T07:36:09;19.20;99.90
7512;DHT22;9999;48.780;9.146;2023-10-13T07:38:43;19.20;99.90
7512;DHT22;9999;48.780;9.146;2023-10-13T07:41:14;19.20;99.90
7512;DHT22;9999;48.780;9.146;2023-10-13T07:43:42;19.30;99.90
7512;DHT22;9999;48.780;9.146;2023-10-13T07:46:10;19.30;99.90
7512;DHT22;9999;48.780;9.146;2023-10-13T07:48:38;19.40;99.90
7512;DHT22;9999;48.780;9.146;2023-10-13T07:51:07;19.30;99.90
7512;DHT22;9999;48.780;9.146;2023-10-13T07:53:37;19.40;99.90
7512;DHT22;9999;48.780;9.146;2023-10-13T07:56:07;19.40;99.90
7512;DHT22;9999;48.780;9.146;2023-10-13T07:58:37;19.60;99.90
7512;DHT22;9999;48.780;9.146;2023-10-13T08:01:13;19.70;99.70
7512;DHT22;9999;48.780;9.146;2023-10-13T08:03:44;19.80;99.80
7512;DHT22;9999;48.780;9.146;2023-10-13T08:06:12;19.80;99.70
7512;DHT22;9999;48.780;9.146;2023-10-13T08:08:46;19.90;99.30
7512;DHT22;9999;48.780;9.146;2023-10-13T08:11:17;20.10;97.70
7512;DHT22;9999;48.780;9.146;2023-10-13T08:13:57;20.20;96.80
7512;DHT22;9999;48.780;9.146;2023-10-13T08:16:25;20.20;97.40
7512;DHT22;9999;48.780;9.146;2023-10-13T08:19:11;20.30;96.70
7512;DHT22;9999;48.780;9.146;2023-10-13T08:21:38;20.40;95.70
7512;DHT22;9999;48.780;9.146;2023-10-13T08:24:15;20.40;95.40
7512;DHT22;9999;48.780;9.146;2023-10-13T08:26:43;20.50;94.80
7512;DHT22;9999;48.780;9.146;2023-10-13T08:29:39;20.50;95.40
7512;DHT22;9999;48.780;9.146;2023-10-13T08:32:24;20.60;94.30
7512;DHT22;9999;48.780;9.146;2023-10-13T08:35:02;20.60;93.70
7512;DHT22;9999;48.780;9.146;2023-10-13T08:38:00;20.70;94.50
7512;DHT22;9999;48.780;9.146;2023-10-13T08:40:30;20.80;93.80
7512;DHT22;9999;48.780;9.146;2023-10-13T08:43:12;20.90;92.60
7512;DHT22;9999;48.780;9.146;2023-10-13T08:45:41;21.00;92.70
7512;DHT22;9999;48.780;9.146;2023-10-13T08:48:20;21.00;93.00
7512;DHT22;9999;48.780;9.146;2023-10-13T08:50:52;21.10;91.80
7512;DHT22;9999;48.780;9.146;2023-10-13T08:53:22;21.20;91.40
7512;DHT22;9999;48.780;9.146;2023-10-13T08:55:58;21.30;92.00
7512;DHT22;9999;48.780;9.146;2023-10-13T08:58:34;21.40;91.20
7512;DHT22;9999;48.780;9.146;2023-10-13T09:01:19;21.40;90.80
7512;DHT22;9999;48.780;9.146;2023-10-13T09:04:14;21.60;90.20
7512;DHT22;9999;48.780;9.146;2023-10-13T09:06:49;21.80;90.50
7512;DHT22;9999;48.780;9.146;2023-10-13T09:09:29;22.00;88.90
7512;DHT22;9999;48.780;9.146;2023-10-13T09:12:01;22.10;88.70
7512;DHT22;9999;48.780;9.146;2023-10-13T09:14:35;22.20;90.20
7512;DHT22;9999;48.780;9.146;2023-10-13T09:17:05;22.30;88.90
7512;DHT22;9999;48.780;9.146;2023-10-13T09:19:48;22.40;86.40
7512;DHT22;9999;48.780;9.146;2023-10-13T09:22:24;22.50;83.50
7512;DHT22;9999;48.780;9.146;2023-10-13T09:24:57;22.60;82.00
7512;DHT22;9999;48.780;9.146;2023-10-13T09:27:28;22.80;79.60
7512;DHT22;9999;48.780;9.146;2023-10-13T09:29:57;22.90;80.00
7512;DHT22;9999;48.780;9.146;2023-10-13T09:32:32;23.10;79.70
7512;DHT22;9999;48.780;9.146;2023-10-13T09:35:11;23.20;80.00
7512;DHT22;9999;48.780;9.146;2023-10-13T09:37:44;23.30;77.40
7512;DHT22;9999;48.780;9.146;2023-10-13T09:40:15;23.40;79.40
7512;DHT22;9999;48.780;9.146;2023-10-13T09:43:00;23.40;77.50
7512;DHT22;9999;48.780;9.146;2023-10-13T09:45:32;23.40;78.50
7512;DHT22;9999;48.780;9.146;2023-10-13T09:48:03;23.50;78.30
7512;DHT22;9999;48.780;9.146;2023-10-13T09:50:37;23.60;76.80
7512;DHT22;9999;48.780;9.146;2023-10-13T09:53:06;23.60;75.90
7512;DHT22;9999;48.780;9.146;2023-10-13T09:55:40;23.60;75.40
7512;DHT22;9999;48.780;9.146;2023-10-13T09:58:11;23.60;75.40
7512;DHT22;9999;48.780;9.146;2023-10-13T10:00:43;23.80;75.40
7512;DHT22;9999;48.780;9.146;2023-10-13T10:03:21;23.90;75.50
7512;DHT22;9999;48.780;9.146;2023-10-13T10:06:06;24.10;72.90
7512;DHT22;9999;48.780;9.146;2023-10-13T10:08:39;24.10;73.30
7512;DHT22;9999;48.780;9.146;2023-10-13T10:11:58;24.30;71.20
7512;DHT22;9999;48.780;9.146;2023-10-13T10:14:37;24.30;71.50
7512;DHT22;9999;48.780;9.146;2023-10-13T10:17:08;24.50;71.00
7512;DHT22;9999;48.780;9.146;2023-10-13T10:19:46;24.50;70.50
7512;DHT22;9999;48.780;9.146;2023-10-13T10:22:25;24.80;71.10
7512;DHT22;9999;48.780;9.146;2023-10-13T10:24:56;24.70;67.40
7512;DHT22;9999;48.780;9.146;2023-10-13T10:27:27;24.70;69.10
7512;DHT22;9999;48.780;9.146;2023-10-13T10:29:56;24.50;67.40
7512;DHT22;9999;48.780;9.146;2023-10-13T10:32:32;24.60;68.90
7512;DHT22;9999;48.780;9.146;2023-10-13T10:35:06;24.70;68.50
7512;DHT22;9999;48.780;9.146;2023-10-13T10:37:41;24.80;68.70
7512;DHT22;9999;48.780;9.146;2023-10-13T10:40:14;25.00;69.00
7512;DHT22;9999;48.780;9.146;2023-10-13T10:42:59;24.90;70.00
7512;DHT22;9999;48.780;9.146;2023-10-13T10:45:28;25.00;66.80
7512;DHT22;9999;48.780;9.146;2023-10-13T10:47:59;24.90;67.90
7512;DHT22;9999;48.780;9.146;2023-10-13T10:50:42;24.90;65.90
7512;DHT22;9999;48.780;9.146;2023-10-13T10:53:10;25.00;66.90
7512;DHT22;9999;48.780;9.146;2023-10-13T10:55:37;25.20;65.00
7512;DHT22;9999;48.780;9.146;2023-10-13T10:58:04;25.50;64.90
7512;DHT22;9999;48.780;9.146;2023-10-13T11:00:32;25.60;67.30
7512;DHT22;9999;48.780;9.146;2023-10-13T11:03:12;25.80;65.60
7512;DHT22;9999;48.780;9.146;2023-10-13T11:05:48;25.80;65.20
7512;DHT22;9999;48.780;9.146;2023-10-13T11:08:24;25.70;67.10
7512;DHT22;9999;48.780;9.146;2023-10-13T11:10:57;25.80;65.70
7512;DHT22;9999;48.780;9.146;2023-10-13T11:13:25;25.80;64.40
7512;DHT22;9999;48.780;9.146;2023-10-13T11:15:56;26.10;63.90
7512;DHT22;9999;48.780;9.146;2023-10-13T11:18:29;26.40;65.50
7512;DHT22;9999;48.780;9.146;2023-10-13T11:20:59;26.50;66.00
7512;DHT22;9999;48.780;9.146;2023-10-13T11:23:32;26.70;62.60
7512;DHT22;9999;48.780;9.146;2023-10-13T11:26:02;26.70;62.80
7512;DHT22;9999;48.780;9.146;2023-10-13T11:28:30;26.90;61.30
7512;DHT22;9999;48.780;9.146;2023-10-13T11:30:59;26.80;60.60
7512;DHT22;9999;48.780;9.146;2023-10-13T11:33:36;26.80;62.30
7512;DHT22;9999;48.780;9.146;2023-10-13T11:36:07;26.90;60.80
7512;DHT22;9999;48.780;9.146;2023-10-13T11:38:42;26.90;59.70
7512;DHT22;9999;48.780;9.146;2023-10-13T11:41:15;27.00;59.40
7512;DHT22;9999;48.780;9.146;2023-10-13T11:43:45;27.20;61.30
7512;DHT22;9999;48.780;9.146;2023-10-13T11:46:49;27.20;59.80
7512;DHT22;9999;48.780;9.146;2023-10-13T11:49:38;27.30;60.20
7512;DHT22;9999;48.780;9.146;2023-10-13T11:52:05;27.30;60.30
7512;DHT22;9999;48.780;9.146;2023-10-13T11:54:45;27.30;58.60
7512;DHT22;9999;48.780;9.146;2023-10-13T11:57:12;27.30;58.00
7512;DHT22;9999;48.780;9.146;2023-10-13T11:59:42;27.40;58.30
7512;DHT22;9999;48.780;9.146;2023-10-13T12:02:20;27.50;58.50
7512;DHT22;9999;48.780;9.146;2023-10-13T12:05:05;27.60;57.80
7512;DHT22;9999;48.780;9.146;2023-10-13T12:07:37;27.50;57.40
7512;DHT22;9999;48.780;9.146;2023-10-13T12:10:15;27.60;57.50
7512;DHT22;9999;48.780;9.146;2023-10-13T12:12:46;27.70;55.90
7512;DHT22;9999;48.780;9.146;2023-10-13T12:15:19;27.40;55.80
7512;DHT22;9999;48.780;9.146;2023-10-13T12:18:03;27.60;58.60
7512;DHT22;9999;48.780;9.146;2023-10-13T12:20:30;27.60;55.90
7512;DHT22;9999;48.780;9.146;2023-10-13T12:23:02;27.80;56.60
7512;DHT22;9999;48.780;9.146;2023-10-13T12:25:42;27.70;56.20
7512;DHT22;9999;48.780;9.146;2023-10-13T12:28:23;27.80;54.70
7512;DHT22;9999;48.780;9.146;2023-10-13T12:30:53;28.00;55.80
7512;DHT22;9999;48.780;9.146;2023-10-13T12:33:20;28.00;55.80
7512;DHT22;9999;48.780;9.146;2023-10-13T12:36:03;28.20;54.40
7512;DHT22;9999;48.780;9.146;2023-10-13T12:38:32;28.20;53.40
7512;DHT22;9999;48.780;9.146;2023-10-13T12:41:39;28.10;55.40
7512;DHT22;9999;48.780;9.146;2023-10-13T12:44:24;28.10;53.60
7512;DHT22;9999;48.780;9.146;2023-10-13T12:47:09;28.00;55.40
7512;DHT22;9999;48.780;9.146;2023-10-13T12:49:53;28.00;54.10
7512;DHT22;9999;48.780;9.146;2023-10-13T12:52:25;28.10;54.90
7512;DHT22;9999;48.780;9.146;2023-10-13T12:54:52;28.20;54.90
7512;DHT22;9999;48.780;9.146;2023-10-13T12:57:33;28.30;54.40
7512;DHT22;9999;48.780;9.146;2023-10-13T13:00:10;28.30;53.50
7512;DHT22;9999;48.780;9.146;2023-10-13T13:02:46;28.10;53.70
7512;DHT22;9999;48.780;9.146;2023-10-13T13:05:16;28.30;54.60
7512;DHT22;9999;48.780;9.146;2023-10-13T13:07:47;28.50;54.70
7512;DHT22;9999;48.780;9.146;2023-10-13T13:10:18;28.40;52.70
7512;DHT22;9999;48.780;9.146;2023-10-13T13:12:46;28.30;51.80
7512;DHT22;9999;48.780;9.146;2023-10-13T13:15:13;28.30;53.70
7512;DHT22;9999;48.780;9.146;2023-10-13T13:17:40;28.30;54.40
7512;DHT22;9999;48.780;9.146;2023-10-13T13:20:08;28.40;53.50
7512;DHT22;9999;48.780;9.146;2023-10-13T13:22:52;28.40;52.00
7512;DHT22;9999;48.780;9.146;2023-10-13T13:25:19;28.30;49.50
7512;DHT22;9999;48.780;9.146;2023-10-13T13:27:52;28.30;52.50
7512;DHT22;9999;48.780;9.146;2023-10-13T13:30:19;28.40;50.30
7512;DHT22;9999;48.780;9.146;2023-10-13T13:32:47;28.60;50.20
7512;DHT22;9999;48.780;9.146;2023-10-13T13:35:15;28.60;50.20
7512;DHT22;9999;48.780;9.146;2023-10-13T13:37:44;28.50;49.80
7512;DHT22;9999;48.780;9.146;2023-10-13T13:40:11;28.40;49.50
7512;DHT22;9999;48.780;9.146;2023-10-13T13:42:42;28.20;49.50
7512;DHT22;9999;48.780;9.146;2023-10-13T13:45:14;28.20;48.70
7512;DHT22;9999;48.780;9.146;2023-10-13T13:47:53;28.10;49.30
7512;DHT22;9999;48.780;9.146;2023-10-13T13:50:21;28.10;49.20
7512;DHT22;9999;48.780;9.146;2023-10-13T13:52:51;28.20;50.90
7512;DHT22;9999;48.780;9.146;2023-10-13T13:55:19;28.20;49.70
7512;DHT22;9999;48.780;9.146;2023-10-13T13:57:46;28.20;49.60
7512;DHT22;9999;48.780;9.146;2023-10-13T14:00:17;28.20;48.60
7512;DHT22;9999;48.780;9.146;2023-10-13T14:02:48;28.10;49.50
7512;DHT22;9999;48.780;9.146;2023-10-13T14:05:15;28.10;50.50
7512;DHT22;9999;48.780;9.146;2023-10-13T14:07:43;28.20;49.40
7512;DHT22;9999;48.780;9.146;2023-10-13T14:10:15;28.10;50.00
7512;DHT22;9999;48.780;9.146;2023-10-13T14:12:58;28.00;50.20
7512;DHT22;9999;48.780;9.146;2023-10-13T14:15:33;27.90;49.60
7512;DHT22;9999;48.780;9.146;2023-10-13T14:18:06;27.90;49.50
7512;DHT22;9999;48.780;9.146;2023-10-13T14:20:38;28.00;50.10
7512;DHT22;9999;48.780;9.146;2023-10-13T14:23:06;28.00;51.10
7512;DHT22;9999;48.780;9.146;2023-10-13T14:25:38;28.00;50.10
7512;DHT22;9999;48.780;9.146;2023-10-13T14:28:10;27.80;49.60
7512;DHT22;9999;48.780;9.146;2023-10-13T14:30:44;27.70;49.40
7512;DHT22;9999;48.780;9.146;2023-10-13T14:33:11;27.60;50.00
7512;DHT22;9999;48.780;9.146;2023-10-13T14:35:38;27.60;47.90
7512;DHT22;9999;48.780;9.146;2023-10-13T14:38:05;27.60;49.70
7512;DHT22;9999;48.780;9.146;2023-10-13T14:40:32;27.60;49.90
7512;DHT22;9999;48.780;9.146;2023-10-13T14:43:02;27.50;48.90
7512;DHT22;9999;48.780;9.146;2023-10-13T14:45:29;27.50;48.00
7512;DHT22;9999;48.780;9.146;2023-10-13T14:48:00;27.50;48.00
7512;DHT22;9999;48.780;9.146;2023-10-13T14:50:31;27.40;47.80
7512;DHT22;9999;48.780;9.146;2023-10-13T14:52:59;27.40;48.10
7512;DHT22;9999;48.780;9.146;2023-10-13T14:55:25;27.40;49.30
7512;DHT22;9999;48.780;9.146;2023-10-13T14:58:03;27.30;47.60
7512;DHT22;9999;48.780;9.146;2023-10-13T15:00:33;27.30;48.10
7512;DHT22;9999;48.780;9.146;2023-10-13T15:03:02;27.20;48.60
7512;DHT22;9999;48.780;9.146;2023-10-13T15:05:31;27.20;47.00
7512;DHT22;9999;48.780;9.146;2023-10-13T15:08:01;27.10;47.60
7512;DHT22;9999;48.780;9.146;2023-10-13T15:10:29;27.10;48.80
7512;DHT22;9999;48.780;9.146;2023-10-13T15:12:56;27.00;47.30
7512;DHT22;9999;48.780;9.146;2023-10-13T15:15:24;26.80;47.70
7512;DHT22;9999;48.780;9.146;2023-10-13T15:17:51;26.80;46.60
7512;DHT22;9999;48.780;9.146;2023-10-13T15:20:20;26.80;47.70
7512;DHT22;9999;48.780;9.146;2023-10-13T15:22:47;26.70;46.00
7512;DHT22;9999;48.780;9.146;2023-10-13T15:25:14;26.60;46.80
7512;DHT22;9999;48.780;9.146;2023-10-13T15:27:46;26.50;48.10
7512;DHT22;9999;48.780;9.146;2023-10-13T15:30:22;26.40;48.10
7512;DHT22;9999;48.780;9.146;2023-10-13T15:32:52;26.30;46.70
7512;DHT22;9999;48.780;9.146;2023-10-13T15:35:20;26.30;48.50
7512;DHT22;9999;48.780;9.146;2023-10-13T15:37:49;26.20;46.70
7512;DHT22;9999;48.780;9.146;2023-10-13T15:40:17;26.10;47.40
7512;DHT22;9999;48.780;9.146;2023-10-13T15:42:44;26.00;47.60
7512;DHT22;9999;48.780;9.146;2023-10-13T15:45:12;25.90;45.60
7512;DHT22;9999;48.780;9.146;2023-10-13T15:47:45;25.90;47.40
7512;DHT22;9999;48.780;9.146;2023-10-13T15:50:13;25.90;47.40
7512;DHT22;9999;48.780;9.146;2023-10-13T15:52:45;25.70;47.80
7512;DHT22;9999;48.780;9.146;2023-10-13T15:55:13;25.60;46.70
7512;DHT22;9999;48.780;9.146;2023-10-13T15:57:41;25.60;46.80
7512;DHT22;9999;48.780;9.146;2023-10-13T16:00:10;25.50;46.80
7512;DHT22;9999;48.780;9.146;2023-10-13T16:02:50;25.40;47.10
7512;DHT22;9999;48.780;9.146;2023-10-13T16:05:18;25.40;47.80
7512;DHT22;9999;48.780;9.146;2023-10-13T16:07:46;25.30;49.00
7512;DHT22;9999;48.780;9.146;2023-10-13T16:10:13;25.20;51.30
7512;DHT22;9999;48.780;9.146;2023-10-13T16:12:40;24.80;47.90
7512;DHT22;9999;48.780;9.146;2023-10-13T16:15:10;24.80;48.40
7512;DHT22;9999;48.780;9.146;2023-10-13T16:17:39;24.70;47.50
7512;DHT22;9999;48.780;9.146;2023-10-13T16:20:07;24.70;49.60
7512;DHT22;9999;48.780;9.146;2023-10-13T16:22:46;24.70;51.70
7512;DHT22;9999;48.780;9.146;2023-10-13T16:25:15;24.60;51.70
7512;DHT22;9999;48.780;9.146;2023-10-13T16:27:43;24.40;52.60
7512;DHT22;9999;48.780;9.146;2023-10-13T16:30:12;24.20;52.90
7512;DHT22;9999;48.780;9.146;2023-10-13T16:32:42;24.10;51.50
7512;DHT22;9999;48.780;9.146;2023-10-13T16:35:12;24.10;53.00
7512;DHT22;9999;48.780;9.146;2023-10-13T16:37:43;24.00;53.20
7512;DHT22;9999;48.780;9.146;2023-10-13T16:40:15;23.80;51.20
7512;DHT22;9999;48.780;9.146;2023-10-13T16:42:44;23.80;49.30
7512;DHT22;9999;48.780;9.146;2023-10-13T16:45:11;23.90;50.10